Time;durP1;ratioP1;P1;durP2;ratioP2;P2;SDS_P1;SDS_P2;PMS_P1;PMS_P2;Temp;Humidity;BMP_temperature;BMP_pressure;BME280_temperature;BME280_humidity;BME280_pressure;Samples;Min_cycle;Max_cycle;Signal;HPM_P1;HPM_P2
2023/06/19 00:01:56;;;;;;;;;;;;;;;;;;5051728;28;19925;-70
2023/06/19 00:04:23;;;;;;;;;;;;;;;;;;5046684;28;19925;-70
2023/06/19 00:06:50;;;;;;;;;;;;;;;;;;5043353;28;20027;-70
2023/06/19 00:09:18;;;;;;;;;;;;;;;;;;5053418;28;19987;-70
2023/06/19 00:11:45;;;;;;;;;;;;;;;;;;5050194;28;19945;-70
2023/06/19 00:14:12;;;;;;;;;;;;;;;;;;5046238;28;19925;-70
2023/06/19 00:16:40;;;;;;;;;;;;;;;;;;5048748;28;19933;-71
2023/06/19 00:19:07;;;;;;;;;;;;;;;;;;5047643;28;19979;-71
2023/06/19 00:21:34;;;;;;;;;;;;;;;;;;5048483;28;19925;-71
2023/06/19 00:24:00;;;;;;;;;;;;;;;;;;5050594;28;20011;-71
2023/06/19 00:26:27;;;;;;;;;;;;;;;;;;5048713;28;19931;-70
2023/06/19 00:28:54;;;;;;;;;;;;;;;;;;5047559;28;19925;-70
2023/06/19 00:31:21;;;;;;;;;;;;;;;;;;5048706;28;20019;-70
2023/06/19 00:33:48;;;;;;;;;;;;;;;;;;5050975;28;20023;-70
2023/06/19 00:36:16;;;;;;;;;;;;;;;;;;5047170;28;20015;-70
2023/06/19 00:38:42;;;;;;;;;;;;;;;;;;5045297;28;19971;-73
2023/06/19 00:41:09;;;;;;;;;;;;;;;;;;5048844;28;20391;-72
2023/06/19 00:43:36;;;;;;;;;;;;;;;;;;5046193;28;19925;-72
2023/06/19 00:46:03;;;;;;;;;;;;;;;;;;5047110;28;19939;-73
2023/06/19 00:48:30;;;;;;;;;;;;;;;;;;5047012;28;19931;-71
2023/06/19 00:50:57;;;;;;;;;;;;;;;;;;5047503;28;20011;-73
2023/06/19 00:53:24;;;;;;;;;;;;;;;;;;5044302;28;19929;-73
2023/06/19 00:55:51;;;;;;;;;;;;;;;;;;5050853;28;19932;-71
2023/06/19 00:58:18;;;;;;;;;;;;;;;;;;5051443;28;20396;-71
2023/06/19 01:00:45;;;;;;;;;;;;;;;;;;5046241;28;20372;-73
2023/06/19 01:03:12;;;;;;;;;;;;;;;;;;5045398;28;20003;-72
2023/06/19 01:05:39;;;;;;;;;;;;;;;;;;5046909;28;19971;-73
2023/06/19 01:08:06;;;;;;;;;;;;;;;;;;5046020;28;19931;-72
2023/06/19 01:10:33;;;;;;;;;;;;;;;;;;5045756;28;19931;-72
2023/06/19 01:13:00;;;;;;;;;;;;;;;;;;5048169;28;19924;-72
2023/06/19 01:15:27;;;;;;;;;;;;;;;;;;5051765;28;20019;-72
2023/06/19 01:17:54;;;;;;;;;;;;;;;;;;5046546;28;19925;-72
2023/06/19 01:20:21;;;;;;;;;;;;;;;;;;5047061;28;20011;-72
2023/06/19 01:22:48;;;;;;;;;;;;;;;;;;5046370;28;20019;-72
2023/06/19 01:25:15;;;;;;;;;;;;;;;;;;5051215;28;19929;-72
2023/06/19 01:27:42;;;;;;;;;;;;;;;;;;5047670;28;19931;-72
2023/06/19 01:30:10;;;;;;;;;;;;;;;;;;5047661;28;19928;-72
2023/06/19 01:32:37;;;;;;;;;;;;;;;;;;5048495;28;20083;-72
2023/06/19 01:35:04;;;;;;;;;;;;;;;;;;5046570;28;19972;-72
2023/06/19 01:37:33;;;;;;;;;;;;;;;;;;5046068;28;19924;-71
2023/06/19 01:40:00;;;;;;;;;;;;;;;;;;5047249;28;20387;-72
2023/06/19 01:42:27;;;;;;;;;;;;;;;;;;5050481;28;20031;-71
2023/06/19 01:44:54;;;;;;;;;;;;;;;;;;5047818;28;20016;-72
2023/06/19 01:47:21;;;;;;;;;;;;;;;;;;5046038;28;19929;-72
2023/06/19 01:49:48;;;;;;;;;;;;;;;;;;5044441;28;19978;-72
2023/06/19 01:52:15;;;;;;;;;;;;;;;;;;5044373;28;19945;-72
2023/06/19 01:54:42;;;;;;;;;;;;;;;;;;5044157;28;20007;-72
2023/06/19 01:57:09;;;;;;;;;;;;;;;;;;5041831;28;19935;-72
2023/06/19 01:59:36;;;;;;;;;;;;;;;;;;5046329;28;19933;-72
2023/06/19 02:02:06;;;;;;;;;;;;;;;;;;5044245;28;19939;-72
2023/06/19 02:04:33;;;;;;;;;;;;;;;;;;5045485;28;19933;-72
2023/06/19 02:07:00;;;;;;;;;;;;;;;;;;5043651;28;19933;-73
2023/06/19 02:09:27;;;;;;;;;;;;;;;;;;5045327;28;20024;-72
2023/06/19 02:11:54;;;;;;;;;;;;;;;;;;5044190;28;19931;-72
2023/06/19 02:14:21;;;;;;;;;;;;;;;;;;5043308;28;20007;-72
2023/06/19 02:16:48;;;;;;;;;;;;;;;;;;5043368;28;19932;-72
2023/06/19 02:19:15;;;;;;;;;;;;;;;;;;5044801;28;20051;-72
2023/06/19 02:21:42;;;;;;;;;;;;;;;;;;5044042;28;19925;-72
2023/06/19 02:24:09;;;;;;;;;;;;;;;;;;5046423;28;19935;-72
2023/06/19 02:26:36;;;;;;;;;;;;;;;;;;5049922;28;19975;-72
2023/06/19 02:29:03;;;;;;;;;;;;;;;;;;5044737;28;20355;-72
2023/06/19 02:31:30;;;;;;;;;;;;;;;;;;5042433;28;20035;-72
2023/06/19 02:33:57;;;;;;;;;;;;;;;;;;5043116;28;19932;-72
2023/06/19 02:36:24;;;;;;;;;;;;;;;;;;5046770;28;20460;-72
2023/06/19 02:38:51;;;;;;;;;;;;;;;;;;5043772;28;19924;-72
2023/06/19 02:41:18;;;;;;;;;;;;;;;;;;5043499;28;20027;-72
2023/06/19 02:43:45;;;;;;;;;;;;;;;;;;5043850;28;19932;-74
2023/06/19 02:46:12;;;;;;;;;;;;;;;;;;5047589;28;20303;-74
2023/06/19 02:48:39;;;;;;;;;;;;;;;;;;5043323;28;20291;-72
2023/06/19 02:51:06;;;;;;;;;;;;;;;;;;5045446;28;20303;-72
2023/06/19 02:53:33;;;;;;;;;;;;;;;;;;5051745;28;19947;-72
2023/06/19 02:56:00;;;;;;;;;;;;;;;;;;5047169;28;20007;-71
2023/06/19 02:58:27;;;;;;;;;;;;;;;;;;5045970;28;20003;-72
2023/06/19 03:00:54;;;;;;;;;;;;;;;;;;5044814;28;19929;-72
2023/06/19 03:03:22;;;;;;;;;;;;;;;;;;5044365;28;20406;-72
2023/06/19 03:05:49;;;;;;;;;;;;;;;;;;5045388;28;19986;-73
2023/06/19 03:08:16;;;;;;;;;;;;;;;;;;5044398;28;20019;-72
2023/06/19 03:10:43;;;;;;;;;;;;;;;;;;5043400;28;19960;-72
2023/06/19 03:13:10;;;;;;;;;;;;;;;;;;5044011;28;19939;-72
2023/06/19 03:15:37;;;;;;;;;;;;;;;;;;5042670;28;19982;-71
2023/06/19 03:18:07;;;;;;;;;;;;;;;;;;5045717;28;20455;-72
2023/06/19 03:20:34;;;;;;;;;;;;;;;;;;5050279;28;19924;-72
2023/06/19 03:23:01;;;;;;;;;;;;;;;;;;5045264;28;20073;-72
2023/06/19 03:25:34;;;;;;;;;;;;;;;;;;5048800;28;20028;-72
2023/06/19 03:28:01;;;;;;;;;;;;;;;;;;5046278;28;19938;-72
2023/06/19 03:30:28;;;;;;;;;;;;;;;;;;5043031;28;20338;-72
2023/06/19 03:32:55;;;;;;;;;;;;;;;;;;5046348;28;20023;-72
2023/06/19 03:35:22;;;;;;;;;;;;;;;;;;5044320;28;20012;-73
2023/06/19 03:37:49;;;;;;;;;;;;;;;;;;5045371;28;19931;-72
2023/06/19 03:40:16;;;;;;;;;;;;;;;;;;5045182;28;19935;-72
2023/06/19 03:42:43;;;;;;;;;;;;;;;;;;5044085;28;19925;-72
2023/06/19 03:45:10;;;;;;;;;;;;;;;;;;5050288;28;20024;-73
2023/06/19 03:47:37;;;;;;;;;;;;;;;;;;5045774;28;19971;-72
2023/06/19 03:50:04;;;;;;;;;;;;;;;;;;5049632;28;20403;-72
2023/06/19 03:52:31;;;;;;;;;;;;;;;;;;5041969;28;19924;-72
2023/06/19 03:54:58;;;;;;;;;;;;;;;;;;5048978;28;20016;-73
2023/06/19 03:57:25;;;;;;;;;;;;;;;;;;5036170;28;20024;-72
2023/06/19 03:59:53;;;;;;;;;;;;;;;;;;5043049;28;19936;-72
2023/06/19 04:02:20;;;;;;;;;;;;;;;;;;5046584;28;19925;-73
2023/06/19 04:04:47;;;;;;;;;;;;;;;;;;5048351;28;19932;-73
2023/06/19 04:07:15;;;;;;;;;;;;;;;;;;5043406;28;19931;-72
2023/06/19 04:09:42;;;;;;;;;;;;;;;;;;5044414;28;19978;-72
2023/06/19 04:12:09;;;;;;;;;;;;;;;;;;5044450;28;19933;-73
2023/06/19 04:14:36;;;;;;;;;;;;;;;;;;5043279;28;19933;-72
2023/06/19 04:17:03;;;;;;;;;;;;;;;;;;5044056;28;20048;-73
2023/06/19 04:19:30;;;;;;;;;;;;;;;;;;5045304;28;19931;-73
2023/06/19 04:21:57;;;;;;;;;;;;;;;;;;5042933;28;19967;-74
2023/06/19 04:24:24;;;;;;;;;;;;;;;;;;5045698;28;20043;-74
2023/06/19 04:26:51;;;;;;;;;;;;;;;;;;5047193;28;20016;-75
2023/06/19 04:29:18;;;;;;;;;;;;;;;;;;5039811;28;20287;-74
2023/06/19 04:31:46;;;;;;;;;;;;;;;;;;5045140;28;20039;-75
2023/06/19 04:34:14;;;;;;;;;;;;;;;;;;5039849;28;19960;-75
2023/06/19 04:36:43;;;;;;;;;;;;;;;;;;5037374;28;21547;-75
2023/06/19 04:39:10;;;;;;;;;;;;;;;;;;5047576;28;20291;-77
2023/06/19 04:41:38;;;;;;;;;;;;;;;;;;5046116;28;20296;-77
2023/06/19 04:44:05;;;;;;;;;;;;;;;;;;5039999;28;19925;-77
2023/06/19 04:46:32;;;;;;;;;;;;;;;;;;5054360;28;19928;-76
2023/06/19 04:48:59;;;;;;;;;;;;;;;;;;5055046;28;19979;-77
2023/06/19 04:51:26;;;;;;;;;;;;;;;;;;5044354;28;20008;-78
2023/06/19 04:53:53;;;;;;;;;;;;;;;;;;5046608;28;20025;-76
2023/06/19 04:56:20;;;;;;;;;;;;;;;;;;5048548;28;20026;-76
2023/06/19 04:58:48;;;;;;;;;;;;;;;;;;5038868;28;19928;-76
2023/06/19 05:01:15;;;;;;;;;;;;;;;;;;5046125;28;19935;-77
2023/06/19 05:03:42;;;;;;;;;;;;;;;;;;5054414;28;20016;-76
2023/06/19 05:06:09;;;;;;;;;;;;;;;;;;5053950;28;20016;-71
2023/06/19 05:08:36;;;;;;;;;;;;;;;;;;5054374;28;20011;-70
2023/06/19 05:11:03;;;;;;;;;;;;;;;;;;5050221;28;20035;-70
2023/06/19 05:13:30;;;;;;;;;;;;;;;;;;5049881;28;20010;-71
2023/06/19 05:15:57;;;;;;;;;;;;;;;;;;5046100;28;19929;-71
2023/06/19 05:18:24;;;;;;;;;;;;;;;;;;5046977;28;20031;-71
2023/06/19 05:20:51;;;;;;;;;;;;;;;;;;5050078;28;20023;-71
2023/06/19 05:23:18;;;;;;;;;;;;;;;;;;5041180;28;19935;-71
2023/06/19 05:25:45;;;;;;;;;;;;;;;;;;5044868;28;20403;-72
2023/06/19 05:28:12;;;;;;;;;;;;;;;;;;5049235;28;20391;-71
2023/06/19 05:30:39;;;;;;;;;;;;;;;;;;5047047;28;20273;-70
2023/06/19 05:33:06;;;;;;;;;;;;;;;;;;5050554;28;19956;-71
2023/06/19 05:35:33;;;;;;;;;;;;;;;;;;5049928;28;20013;-71
2023/06/19 05:38:00;;;;;;;;;;;;;;;;;;5041163;28;19964;-75
2023/06/19 05:40:28;;;;;;;;;;;;;;;;;;5050461;28;20007;-72
2023/06/19 05:42:56;;;;;;;;;;;;;;;;;;5037091;28;20434;-72
2023/06/19 05:45:23;;;;;;;;;;;;;;;;;;5048178;28;20299;-71
2023/06/19 05:47:50;;;;;;;;;;;;;;;;;;5049282;28;19928;-72
2023/06/19 05:50:17;;;;;;;;;;;;;;;;;;5048679;28;19983;-70
2023/06/19 05:52:44;;;;;;;;;;;;;;;;;;5038858;28;20465;-72
2023/06/19 05:55:12;;;;;;;;;;;;;;;;;;5052577;28;20442;-71
2023/06/19 05:57:39;;;;;;;;;;;;;;;;;;5046819;28;19924;-71
2023/06/19 06:00:07;;;;;;;;;;;;;;;;;;5051193;28;19924;-74
2023/06/19 06:02:33;;;;;;;;;;;;;;;;;;5063153;28;20449;-71
2023/06/19 06:05:01;;;;;;;;;;;;;;;;;;5047978;28;20012;-72
2023/06/19 06:07:28;;;;;;;;;;;;;;;;;;5040124;28;19984;-74
2023/06/19 06:09:55;;;;;;;;;;;;;;;;;;5058215;28;19929;-73
2023/06/19 06:12:22;;;;;;;;;;;;;;;;;;5042021;28;19925;-72
2023/06/19 06:14:49;;;;;;;;;;;;;;;;;;5047872;28;20611;-73
2023/06/19 06:17:16;;;;;;;;;;;;;;;;;;5050601;28;19963;-70
2023/06/19 06:19:43;;;;;;;;;;;;;;;;;;5040724;28;20012;-73
2023/06/19 06:22:10;;;;;;;;;;;;;;;;;;5041808;28;19925;-72
2023/06/19 06:24:38;;;;;;;;;;;;;;;;;;5049676;28;19929;-73
2023/06/19 06:27:05;;;;;;;;;;;;;;;;;;5041071;28;20408;-72
2023/06/19 06:29:32;;;;;;;;;;;;;;;;;;5046013;28;20744;-71
2023/06/19 06:31:59;;;;;;;;;;;;;;;;;;5048935;28;19925;-71
2023/06/19 06:34:26;;;;;;;;;;;;;;;;;;5045652;28;19924;-73
2023/06/19 06:36:53;;;;;;;;;;;;;;;;;;5049272;28;19925;-72
2023/06/19 06:39:20;;;;;;;;;;;;;;;;;;5051875;28;20008;-73
2023/06/19 06:41:47;;;;;;;;;;;;;;;;;;5048371;28;19932;-73
2023/06/19 06:44:14;;;;;;;;;;;;;;;;;;5032404;28;20027;-73
2023/06/19 06:46:41;;;;;;;;;;;;;;;;;;5044221;28;20419;-72
2023/06/19 06:49:08;;;;;;;;;;;;;;;;;;5042421;28;20467;-72
2023/06/19 06:51:35;;;;;;;;;;;;;;;;;;5048207;28;20356;-72
2023/06/19 06:54:02;;;;;;;;;;;;;;;;;;5042575;28;20012;-71
2023/06/19 06:56:29;;;;;;;;;;;;;;;;;;5044239;28;20029;-73
2023/06/19 06:58:56;;;;;;;;;;;;;;;;;;5043343;28;19925;-73
2023/06/19 07:01:23;;;;;;;;;;;;;;;;;;5043811;28;19979;-73
2023/06/19 07:03:50;;;;;;;;;;;;;;;;;;5039708;28;20122;-72
2023/06/19 07:06:17;;;;;;;;;;;;;;;;;;5046920;28;20019;-76
2023/06/19 07:08:47;;;;;;;;;;;;;;;;;;5049075;28;19963;-77
2023/06/19 07:11:14;;;;;;;;;;;;;;;;;;5043599;28;20034;-77
2023/06/19 07:13:41;;;;;;;;;;;;;;;;;;5044198;28;19969;-76
2023/06/19 07:16:08;;;;;;;;;;;;;;;;;;5037524;28;20112;-77
2023/06/19 07:18:38;;;;;;;;;;;;;;;;;;5044362;28;20002;-78
2023/06/19 07:21:05;;;;;;;;;;;;;;;;;;5058050;22;19925;-76
2023/06/19 07:23:32;;;;;;;;;;;;;;;;;;5044077;28;20050;-76
2023/06/19 07:25:59;;;;;;;;;;;;;;;;;;5049400;28;20031;-77
2023/06/19 07:28:26;;;;;;;;;;;;;;;;;;5049049;28;19925;-78
2023/06/19 07:30:53;;;;;;;;;;;;;;;;;;5047419;28;19928;-77
2023/06/19 07:33:20;;;;;;;;;;;;;;;;;;5054213;28;20023;-77
2023/06/19 07:35:47;;;;;;;;;;;;;;;;;;5053470;28;20022;-78
2023/06/19 07:38:14;;;;;;;;;;;;;;;;;;5049149;28;19925;-78
2023/06/19 07:40:41;;;;;;;;;;;;;;;;;;5053727;28;20015;-76
2023/06/19 07:43:08;;;;;;;;;;;;;;;;;;5048306;28;19977;-77
2023/06/19 07:45:35;;;;;;;;;;;;;;;;;;5048567;28;19967;-77
2023/06/19 07:48:02;;;;;;;;;;;;;;;;;;5045480;28;19925;-77
2023/06/19 07:50:29;;;;;;;;;;;;;;;;;;5047689;28;20307;-76
2023/06/19 07:52:56;;;;;;;;;;;;;;;;;;5050537;28;20012;-77
2023/06/19 07:55:23;;;;;;;;;;;;;;;;;;5051534;28;20011;-79
2023/06/19 07:57:52;;;;;;;;;;;;;;;;;;5046881;28;20016;-77
2023/06/19 08:00:19;;;;;;;;;;;;;;;;;;5055827;28;20406;-77
2023/06/19 08:02:46;;;;;;;;;;;;;;;;;;5048394;28;20356;-77
2023/06/19 08:05:13;;;;;;;;;;;;;;;;;;5049935;28;20303;-78
2023/06/19 08:07:40;;;;;;;;;;;;;;;;;;5050146;28;20016;-78
2023/06/19 08:10:07;;;;;;;;;;;;;;;;;;5048197;28;19931;-77
2023/06/19 08:12:34;;;;;;;;;;;;;;;;;;5051842;28;19929;-78
2023/06/19 08:15:01;;;;;;;;;;;;;;;;;;5050252;28;19995;-80
2023/06/19 08:17:27;;;;;;;;;;;;;;;;;;5051549;28;19931;-78
2023/06/19 08:19:54;;;;;;;;;;;;;;;;;;5053445;28;20277;-75
2023/06/19 08:22:21;;;;;;;;;;;;;;;;;;5053569;28;20407;-78
2023/06/19 08:24:48;;;;;;;;;;;;;;;;;;5053928;28;19975;-75
2023/06/19 08:27:15;;;;;;;;;;;;;;;;;;5054648;28;20320;-75
2023/06/19 08:29:43;;;;;;;;;;;;;;;;;;5057312;28;20006;-75
2023/06/19 08:32:10;;;;;;;;;;;;;;;;;;5061961;28;20042;-73
2023/06/19 08:34:37;;;;;;;;;;;;;;;;;;5054146;28;19928;-73
2023/06/19 08:37:04;;;;;;;;;;;;;;;;;;5054029;28;19925;-74
2023/06/19 08:39:32;;;;;;;;;;;;;;;;;;5047023;28;19951;-75
2023/06/19 08:41:59;;;;;;;;;;;;;;;;;;5047942;28;20411;-75
2023/06/19 08:44:26;;;;;;;;;;;;;;;;;;5053745;28;19972;-76
2023/06/19 08:46:53;;;;;;;;;;;;;;;;;;5050208;28;19929;-75
2023/06/19 08:49:20;;;;;;;;;;;;;;;;;;5053231;28;20024;-74
2023/06/19 08:51:47;;;;;;;;;;;;;;;;;;5053255;28;19925;-77
2023/06/19 08:54:14;;;;;;;;;;;;;;;;;;5053044;28;20016;-76
2023/06/19 08:56:40;;;;;;;;;;;;;;;;;;5049011;28;19925;-77
2023/06/19 08:59:07;;;;;;;;;;;;;;;;;;5054938;28;20467;-81
2023/06/19 09:01:34;;;;;;;;;;;;;;;;;;5068195;28;20363;-76
2023/06/19 09:04:01;;;;;;;;;;;;;;;;;;5057127;28;20032;-77
2023/06/19 09:06:28;;;;;;;;;;;;;;;;;;5050858;28;20075;-75
2023/06/19 09:08:55;;;;;;;;;;;;;;;;;;5049107;28;20348;-75
2023/06/19 09:11:22;;;;;;;;;;;;;;;;;;5051941;28;19944;-76
2023/06/19 09:13:51;;;;;;;;;;;;;;;;;;5052979;28;19964;-76
2023/06/19 09:16:18;;;;;;;;;;;;;;;;;;5049733;28;19925;-76
2023/06/19 09:18:45;;;;;;;;;;;;;;;;;;5051021;28;20011;-75
2023/06/19 09:21:12;;;;;;;;;;;;;;;;;;5053815;28;19967;-76
2023/06/19 09:23:38;;;;;;;;;;;;;;;;;;5047896;28;19964;-79
2023/06/19 09:26:05;;;;;;;;;;;;;;;;;;5051662;28;19967;-74
2023/06/19 09:28:32;;;;;;;;;;;;;;;;;;5066504;28;19975;-75
2023/06/19 09:30:59;;;;;;;;;;;;;;;;;;5053497;28;20395;-72
2023/06/19 09:33:26;;;;;;;;;;;;;;;;;;5047377;28;20023;-73
2023/06/19 09:35:53;;;;;;;;;;;;;;;;;;5047852;28;20442;-74
2023/06/19 09:38:20;;;;;;;;;;;;;;;;;;5039012;28;19960;-74
2023/06/19 09:40:47;;;;;;;;;;;;;;;;;;5055386;28;20453;-74
2023/06/19 09:43:14;;;;;;;;;;;;;;;;;;5052856;28;19956;-76
2023/06/19 09:45:41;;;;;;;;;;;;;;;;;;5061085;28;20011;-77
2023/06/19 09:48:08;;;;;;;;;;;;;;;;;;5055517;28;20063;-77
2023/06/19 09:50:35;;;;;;;;;;;;;;;;;;5050545;28;20020;-76
2023/06/19 09:53:04;;;;;;;;;;;;;;;;;;5044091;28;20369;-77
2023/06/19 09:55:31;;;;;;;;;;;;;;;;;;5047033;28;19929;-77
2023/06/19 09:57:58;;;;;;;;;;;;;;;;;;5048230;28;20478;-77
2023/06/19 10:00:30;;;;;;;;;;;;;;;;;;5048389;28;20043;-77
2023/06/19 10:03:00;;;;;;;;;;;;;;;;;;5050075;28;19933;-77
2023/06/19 10:05:27;;;;;;;;;;;;;;;;;;5055972;28;20433;-77
2023/06/19 10:07:59;;;;;;;;;;;;;;;;;;5051733;28;20027;-77
2023/06/19 10:10:26;;;;;;;;;;;;;;;;;;5050695;28;19964;-76
2023/06/19 10:12:54;;;;;;;;;;;;;;;;;;5050968;28;19928;-77
2023/06/19 10:15:21;;;;;;;;;;;;;;;;;;5049460;28;19933;-77
2023/06/19 10:17:48;;;;;;;;;;;;;;;;;;5056432;28;20293;-78
2023/06/19 10:20:15;;;;;;;;;;;;;;;;;;5049112;28;19925;-78
2023/06/19 10:22:42;;;;;;;;;;;;;;;;;;5049738;28;19933;-79
2023/06/19 10:25:09;;;;;;;;;;;;;;;;;;5050179;28;19972;-78
2023/06/19 10:27:36;;;;;;;;;;;;;;;;;;5048514;28;20412;-78
2023/06/19 10:30:04;;;;;;;;;;;;;;;;;;5047991;28;20027;-79
2023/06/19 10:32:31;;;;;;;;;;;;;;;;;;5050415;28;19925;-78
2023/06/19 10:34:58;;;;;;;;;;;;;;;;;;5047467;28;19997;-78
2023/06/19 10:37:25;;;;;;;;;;;;;;;;;;5045026;28;20014;-77
2023/06/19 10:39:52;;;;;;;;;;;;;;;;;;5049169;28;19936;-79
2023/06/19 10:42:19;;;;;;;;;;;;;;;;;;5043918;28;19972;-77
2023/06/19 10:44:46;;;;;;;;;;;;;;;;;;5047511;28;20011;-78
2023/06/19 10:47:13;;;;;;;;;;;;;;;;;;5043382;28;20667;-77
2023/06/19 10:49:40;;;;;;;;;;;;;;;;;;5045494;28;19971;-74
2023/06/19 10:52:07;;;;;;;;;;;;;;;;;;5031410;28;20017;-77
2023/06/19 10:54:34;;;;;;;;;;;;;;;;;;5042087;28;20023;-78
2023/06/19 10:57:02;;;;;;;;;;;;;;;;;;5053294;28;20261;-76
2023/06/19 10:59:29;;;;;;;;;;;;;;;;;;5051124;28;19924;-77
2023/06/19 11:01:56;;;;;;;;;;;;;;;;;;5050051;28;19979;-78
2023/06/19 11:07:14;;;;;;;;;;;;;;;;;;5048272;28;20065;-78
2023/06/19 11:09:41;;;;;;;;;;;;;;;;;;5051527;28;19968;-76
2023/06/19 11:12:08;;;;;;;;;;;;;;;;;;5047046;28;19991;-77
2023/06/19 11:14:39;;;;;;;;;;;;;;;;;;5051858;28;20003;-76
2023/06/19 11:17:06;;;;;;;;;;;;;;;;;;5054530;28;19932;-76
2023/06/19 11:19:34;;;;;;;;;;;;;;;;;;5051238;28;19928;-75
2023/06/19 11:22:03;;;;;;;;;;;;;;;;;;5046401;28;19925;-75
2023/06/19 11:24:30;;;;;;;;;;;;;;;;;;5056439;28;20384;-75
2023/06/19 11:26:58;;;;;;;;;;;;;;;;;;5050786;28;20024;-76
2023/06/19 11:29:25;;;;;;;;;;;;;;;;;;5050688;28;19947;-76
2023/06/19 11:31:53;;;;;;;;;;;;;;;;;;5054336;28;19924;-76
2023/06/19 11:34:20;;;;;;;;;;;;;;;;;;5051128;28;19950;-77
2023/06/19 11:36:47;;;;;;;;;;;;;;;;;;5057574;28;19984;-76
2023/06/19 11:39:14;;;;;;;;;;;;;;;;;;5043388;28;20362;-75
2023/06/19 11:41:42;;;;;;;;;;;;;;;;;;5047194;28;19925;-77
2023/06/19 11:44:10;;;;;;;;;;;;;;;;;;5052536;28;19924;-78
2023/06/19 11:46:37;;;;;;;;;;;;;;;;;;5051754;28;19968;-79
2023/06/19 11:49:04;;;;;;;;;;;;;;;;;;5055376;28;19929;-78
2023/06/19 11:51:31;;;;;;;;;;;;;;;;;;5055318;28;19995;-77
2023/06/19 11:53:58;;;;;;;;;;;;;;;;;;5055928;28;19968;-77
2023/06/19 11:56:25;;;;;;;;;;;;;;;;;;5058120;28;19943;-76
2023/06/19 11:58:52;;;;;;;;;;;;;;;;;;5051120;28;19929;-77
2023/06/19 12:01:19;;;;;;;;;;;;;;;;;;5054820;28;20016;-75
2023/06/19 12:03:46;;;;;;;;;;;;;;;;;;5052984;28;20363;-76
2023/06/19 12:06:13;;;;;;;;;;;;;;;;;;5052191;28;20015;-75
2023/06/19 12:08:40;;;;;;;;;;;;;;;;;;5052707;28;19978;-75
2023/06/19 12:11:09;;;;;;;;;;;;;;;;;;5055552;28;20015;-77
2023/06/19 12:13:36;;;;;;;;;;;;;;;;;;5053439;28;19932;-77
2023/06/19 12:16:03;;;;;;;;;;;;;;;;;;5050401;28;20384;-78
2023/06/19 12:18:30;;;;;;;;;;;;;;;;;;5048786;28;20419;-76
2023/06/19 12:20:57;;;;;;;;;;;;;;;;;;5054630;28;19932;-75
2023/06/19 12:23:24;;;;;;;;;;;;;;;;;;5054306;28;19925;-76
2023/06/19 12:25:51;;;;;;;;;;;;;;;;;;5055135;28;20043;-75
2023/06/19 12:28:19;;;;;;;;;;;;;;;;;;5053153;28;20007;-79
2023/06/19 12:30:46;;;;;;;;;;;;;;;;;;5052797;28;19933;-77
2023/06/19 12:33:13;;;;;;;;;;;;;;;;;;5054719;28;19994;-77
2023/06/19 12:35:40;;;;;;;;;;;;;;;;;;5050635;28;19983;-77
2023/06/19 12:38:07;;;;;;;;;;;;;;;;;;5042952;28;19925;-79
2023/06/19 12:40:34;;;;;;;;;;;;;;;;;;5054520;28;20005;-76
2023/06/19 12:43:02;;;;;;;;;;;;;;;;;;5053862;28;19968;-76
2023/06/19 12:45:29;;;;;;;;;;;;;;;;;;5051283;28;19924;-76
2023/06/19 12:47:56;;;;;;;;;;;;;;;;;;5053271;28;20024;-76
2023/06/19 12:50:23;;;;;;;;;;;;;;;;;;5053531;28;20019;-75
2023/06/19 12:52:50;;;;;;;;;;;;;;;;;;5054109;28;20295;-76
2023/06/19 12:55:17;;;;;;;;;;;;;;;;;;5052026;28;19924;-76
2023/06/19 12:57:44;;;;;;;;;;;;;;;;;;5050896;28;19924;-76
2023/06/19 13:00:11;;;;;;;;;;;;;;;;;;5053890;28;20391;-77
2023/06/19 13:02:39;;;;;;;;;;;;;;;;;;5052029;28;19990;-76
2023/06/19 13:05:06;;;;;;;;;;;;;;;;;;5052831;28;19925;-76
2023/06/19 13:07:33;;;;;;;;;;;;;;;;;;5051200;28;20023;-77
2023/06/19 13:10:00;;;;;;;;;;;;;;;;;;5053533;28;19980;-76
2023/06/19 13:12:27;;;;;;;;;;;;;;;;;;5051691;28;20039;-78
2023/06/19 13:14:53;;;;;;;;;;;;;;;;;;5064227;28;20019;-79
2023/06/19 13:17:21;;;;;;;;;;;;;;;;;;5054801;28;20362;-76
2023/06/19 13:19:47;;;;;;;;;;;;;;;;;;5053986;28;19925;-79
2023/06/19 13:22:14;;;;;;;;;;;;;;;;;;5051280;28;19939;-78
2023/06/19 13:24:42;;;;;;;;;;;;;;;;;;5052454;28;20300;-79
2023/06/19 13:27:08;;;;;;;;;;;;;;;;;;5052797;28;20031;-77
2023/06/19 13:29:35;;;;;;;;;;;;;;;;;;5049135;28;19967;-77
2023/06/19 13:32:02;;;;;;;;;;;;;;;;;;5051034;28;20401;-79
2023/06/19 13:34:29;;;;;;;;;;;;;;;;;;5048263;28;19924;-83
2023/06/19 13:36:56;;;;;;;;;;;;;;;;;;5052651;28;19933;-81
2023/06/19 13:39:23;;;;;;;;;;;;;;;;;;5048277;28;20087;-81
2023/06/19 13:41:51;;;;;;;;;;;;;;;;;;5049716;28;20024;-82
2023/06/19 13:44:18;;;;;;;;;;;;;;;;;;5059299;28;20020;-79
2023/06/19 13:46:46;;;;;;;;;;;;;;;;;;5052612;28;20360;-80
2023/06/19 13:49:14;;;;;;;;;;;;;;;;;;5045955;28;20392;-81
2023/06/19 13:51:41;;;;;;;;;;;;;;;;;;5050602;28;20674;-79
2023/06/19 13:54:08;;;;;;;;;;;;;;;;;;5055957;28;19925;-79
2023/06/19 13:56:36;;;;;;;;;;;;;;;;;;5061016;28;20300;-80
2023/06/19 13:59:04;;;;;;;;;;;;;;;;;;5050623;28;20372;-80
2023/06/19 14:01:31;;;;;;;;;;;;;;;;;;5048426;28;20066;-77
2023/06/19 14:03:58;;;;;;;;;;;;;;;;;;5050847;28;19929;-78
2023/06/19 14:06:25;;;;;;;;;;;;;;;;;;5056237;28;19929;-78
2023/06/19 14:08:52;;;;;;;;;;;;;;;;;;5049636;28;20027;-78
2023/06/19 14:11:19;;;;;;;;;;;;;;;;;;5053871;28;20363;-80
2023/06/19 14:13:46;;;;;;;;;;;;;;;;;;5049937;28;19924;-78
2023/06/19 14:16:13;;;;;;;;;;;;;;;;;;5051853;28;20023;-79
2023/06/19 14:18:40;;;;;;;;;;;;;;;;;;5048766;28;20028;-80
2023/06/19 14:21:07;;;;;;;;;;;;;;;;;;5051013;28;19925;-81
2023/06/19 14:23:38;;;;;;;;;;;;;;;;;;5052095;28;19956;-80
2023/06/19 14:26:05;;;;;;;;;;;;;;;;;;5051715;28;19925;-74
2023/06/19 14:28:32;;;;;;;;;;;;;;;;;;5052094;28;20401;-79
2023/06/19 14:30:59;;;;;;;;;;;;;;;;;;5055337;28;20129;-78
2023/06/19 14:33:26;;;;;;;;;;;;;;;;;;5050478;28;19925;-80
2023/06/19 14:35:53;;;;;;;;;;;;;;;;;;5046196;28;19948;-78
2023/06/19 14:38:20;;;;;;;;;;;;;;;;;;5047896;28;20008;-78
2023/06/19 14:40:47;;;;;;;;;;;;;;;;;;5045293;28;20015;-81
2023/06/19 14:43:14;;;;;;;;;;;;;;;;;;5045420;28;19925;-81
2023/06/19 14:45:42;;;;;;;;;;;;;;;;;;5051336;28;19976;-81
2023/06/19 14:48:09;;;;;;;;;;;;;;;;;;5046987;28;19953;-80
2023/06/19 14:50:37;;;;;;;;;;;;;;;;;;5050079;28;19936;-78
2023/06/19 14:53:04;;;;;;;;;;;;;;;;;;5050859;28;19925;-79
2023/06/19 14:55:31;;;;;;;;;;;;;;;;;;5050012;28;19936;-77
2023/06/19 14:57:58;;;;;;;;;;;;;;;;;;5050896;28;19924;-78
2023/06/19 15:00:25;;;;;;;;;;;;;;;;;;5050621;28;19983;-78
2023/06/19 15:02:52;;;;;;;;;;;;;;;;;;5049571;28;20016;-78
2023/06/19 15:05:19;;;;;;;;;;;;;;;;;;5049446;28;19999;-76
2023/06/19 15:07:46;;;;;;;;;;;;;;;;;;5049784;28;20027;-77
2023/06/19 15:10:13;;;;;;;;;;;;;;;;;;5049616;28;19971;-77
2023/06/19 15:12:40;;;;;;;;;;;;;;;;;;5048991;28;19925;-78
2023/06/19 15:15:07;;;;;;;;;;;;;;;;;;5047802;28;20016;-78
2023/06/19 15:17:34;;;;;;;;;;;;;;;;;;5045048;28;20027;-78
2023/06/19 15:20:01;;;;;;;;;;;;;;;;;;5054949;28;20598;-79
2023/06/19 15:22:28;;;;;;;;;;;;;;;;;;5049097;28;19928;-79
2023/06/19 15:24:55;;;;;;;;;;;;;;;;;;5047958;28;20023;-79
2023/06/19 15:27:22;;;;;;;;;;;;;;;;;;5053877;28;19992;-78
2023/06/19 15:29:49;;;;;;;;;;;;;;;;;;5048113;28;20023;-78
2023/06/19 15:32:16;;;;;;;;;;;;;;;;;;5050274;28;19939;-78
2023/06/19 15:34:43;;;;;;;;;;;;;;;;;;5053011;28;20357;-78
2023/06/19 15:37:10;;;;;;;;;;;;;;;;;;5048466;28;19928;-78
2023/06/19 15:39:38;;;;;;;;;;;;;;;;;;5049167;28;19951;-77
2023/06/19 15:42:05;;;;;;;;;;;;;;;;;;5047891;28;20339;-78
2023/06/19 15:44:32;;;;;;;;;;;;;;;;;;5051322;28;20366;-78
2023/06/19 15:46:59;;;;;;;;;;;;;;;;;;5058207;28;19924;-77
2023/06/19 15:49:26;;;;;;;;;;;;;;;;;;5048004;28;19932;-78
2023/06/19 15:51:53;;;;;;;;;;;;;;;;;;5052862;28;19961;-78
2023/06/19 15:54:20;;;;;;;;;;;;;;;;;;5050911;28;20019;-77
2023/06/19 15:56:47;;;;;;;;;;;;;;;;;;5049894;28;19929;-78
2023/06/19 15:59:17;;;;;;;;;;;;;;;;;;5049463;28;19925;-77
2023/06/19 16:01:44;;;;;;;;;;;;;;;;;;5040130;28;19932;-76
2023/06/19 16:04:11;;;;;;;;;;;;;;;;;;5049552;28;19983;-77
2023/06/19 16:06:39;;;;;;;;;;;;;;;;;;5050078;28;19972;-77
2023/06/19 16:09:06;;;;;;;;;;;;;;;;;;5050552;28;20395;-77
2023/06/19 16:11:33;;;;;;;;;;;;;;;;;;5050477;28;20015;-77
2023/06/19 16:14:00;;;;;;;;;;;;;;;;;;5047651;28;19935;-78
2023/06/19 16:16:27;;;;;;;;;;;;;;;;;;5034983;28;19976;-78
2023/06/19 16:18:54;;;;;;;;;;;;;;;;;;5051507;28;19925;-78
2023/06/19 16:21:22;;;;;;;;;;;;;;;;;;5045938;28;19932;-78
2023/06/19 16:23:49;;;;;;;;;;;;;;;;;;5043817;28;20462;-73
2023/06/19 16:26:16;;;;;;;;;;;;;;;;;;5047586;28;19999;-73
2023/06/19 16:28:43;;;;;;;;;;;;;;;;;;5049666;28;19979;-73
2023/06/19 16:31:11;;;;;;;;;;;;;;;;;;5046779;28;19928;-73
2023/06/19 16:33:38;;;;;;;;;;;;;;;;;;5050655;28;20040;-73
2023/06/19 16:36:05;;;;;;;;;;;;;;;;;;5045819;28;19931;-73
2023/06/19 16:38:32;;;;;;;;;;;;;;;;;;5058966;28;19931;-73
2023/06/19 16:40:59;;;;;;;;;;;;;;;;;;5057707;28;19924;-72
2023/06/19 16:43:26;;;;;;;;;;;;;;;;;;5043880;28;19960;-73
2023/06/19 16:45:53;;;;;;;;;;;;;;;;;;5052743;28;20393;-73
2023/06/19 16:48:20;;;;;;;;;;;;;;;;;;5051148;28;19986;-72